Latest Weather Observations for Outer Harbor (Black Pole)

IDS60901

Issued at 6:11 am CST Saturday 19 September 2020 (issued every 10 minutes, with the page automatically refreshed every 10 minutes)

About weather observations | Map of Adelaide area stations | Latest observations for Adelaide area | Other Formats
Station Details ID: 023052 Name: BLACK POLE Lat: -34.73 Lon: 138.47 Height: 6.27 m
Data from the previous 72 hours. | See also: Recent months for locations in South Australia
Date/Time
CST
Temp
°C
App
Temp
°C
Dew
Point
°C
Rel
Hum
%
Delta-T
°C
Wind Press
QNH
hPa
Press
MSL
hPa
Rain since
9am
mm
Dir  Spd
km/h
Gust
km/h
Spd
kts
Gust
kts
19/06:00am - - - - - NNE 17 20 9 11 - - -
19/05:30am - - - - - NNE 15 19 8 10 - - -
19/05:00am - - - - - N 19 22 10 12 - - -
19/04:30am - - - - - N 22 32 12 17 - - -
19/04:00am - - - - - NNE 19 24 10 13 - - -
19/03:30am - - - - - ENE 19 22 10 12 - - -
19/03:00am - - - - - E 24 28 13 15 - - -
19/02:30am - - - - - ESE 20 26 11 14 - - -
19/02:00am - - - - - E 11 15 6 8 - - -
19/01:30am - - - - - NNE 7 9 4 5 - - -
19/01:00am - - - - - ESE 9 13 5 7 - - -
19/12:30am - - - - - NW 9 13 5 7 - - -
19/12:00am - - - - - NW 15 17 8 9 - - -
 
Date/Time
CST
Temp
°C
App
Temp
°C
Dew
Point
°C
Rel
Hum
%
Delta-T
°C
Wind Press
QNH
hPa
Press
MSL
hPa
Rain since
9am
mm
Dir  Spd
km/h
Gust
km/h
Spd
kts
Gust
kts
18/11:30pm - - - - - NW 11 13 6 7 - - -
18/11:00pm - - - - - NNW 15 20 8 11 - - -
18/10:30pm - - - - - NW 33 46 18 25 - - -
18/10:16pm - - - - - N 37 83 20 45 - - -
18/10:08pm - - - - - N 35 83 19 45 - - -
18/10:06pm - - - - - N 32 54 17 29 - - -
18/10:00pm - - - - - NNE 33 46 18 25 - - -
18/09:55pm - - - - - NE 39 52 21 28 - - -
18/09:30pm - - - - - ENE 41 52 22 28 - - -
18/09:00pm - - - - - ENE 30 37 16 20 - - -
18/08:30pm - - - - - ENE 32 35 17 19 - - -
18/08:00pm - - - - - ENE 30 35 16 19 - - -
18/07:30pm - - - - - ENE 32 37 17 20 - - -
18/07:00pm - - - - - E 32 35 17 19 - - -
18/06:30pm - - - - - ENE 32 39 17 21 - - -
18/06:00pm - - - - - E 24 32 13 17 - - -
18/05:30pm - - - - - E 26 30 14 16 - - -
18/05:00pm - - - - - E 22 26 12 14 - - -
18/04:30pm - - - - - ENE 22 24 12 13 - - -
18/04:00pm - - - - - ENE 32 37 17 20 - - -
18/03:30pm - - - - - ENE 32 41 17 22 - - -
18/03:00pm - - - - - ENE 30 37 16 20 - - -
18/02:30pm - - - - - NE 28 35 15 19 - - -
18/02:00pm - - - - - NE 30 37 16 20 - - -
18/01:30pm - - - - - NE 30 37 16 20 - - -
18/01:00pm - - - - - NE 30 35 16 19 - - -
18/12:30pm - - - - - NE 32 37 17 20 - - -
18/12:00pm - - - - - NE 35 43 19 23 - - -
18/11:30am - - - - - NE 39 44 21 24 - - -
18/11:00am - - - - - NE 35 43 19 23 - - -
18/10:30am - - - - - NE 35 44 19 24 - - -
18/10:00am - - - - - NE 39 52 21 28 - - -
18/09:30am - - - - - ENE 35 48 19 26 - - -
18/09:00am - - - - - NE 33 46 18 25 - - -
18/08:30am - - - - - ENE 44 57 24 31 - - -
18/08:00am - - - - - ENE 30 39 16 21 - - -
18/07:30am - - - - - ENE 30 37 16 20 - - -
18/07:00am - - - - - ENE 28 32 15 17 - - -
18/06:30am - - - - - ENE 28 37 15 20 - - -
18/06:00am - - - - - ENE 30 37 16 20 - - -
18/05:30am - - - - - ENE 30 39 16 21 - - -
18/05:00am - - - - - ENE 33 43 18 23 - - -
18/04:30am - - - - - ENE 32 39 17 21 - - -
18/04:00am - - - - - E 32 39 17 21 - - -
18/03:30am - - - - - ENE 30 37 16 20 - - -
18/03:00am - - - - - ENE 32 39 17 21 - - -
18/02:30am - - - - - ENE 26 32 14 17 - - -
18/02:00am - - - - - ENE 26 32 14 17 - - -
18/01:30am - - - - - ENE 33 41 18 22 - - -
18/01:00am - - - - - ENE 24 28 13 15 - - -
18/12:30am - - - - - E 28 35 15 19 - - -
18/12:00am - - - - - ENE 28 35 15 19 - - -
 
Date/Time
CST
Temp
°C
App
Temp
°C
Dew
Point
°C
Rel
Hum
%
Delta-T
°C
Wind Press
QNH
hPa
Press
MSL
hPa
Rain since
9am
mm
Dir  Spd
km/h
Gust
km/h
Spd
kts
Gust
kts
17/11:30pm - - - - - E 32 37 17 20 - - -
17/11:00pm - - - - - E 24 33 13 18 - - -
17/10:30pm - - - - - ENE 30 37 16 20 - - -
17/10:00pm - - - - - E 37 44 20 24 - - -
17/09:30pm - - - - - E 43 61 23 33 - - -
17/09:25pm - - - - - E 39 61 21 33 - - -
17/09:00pm - - - - - E 43 56 23 30 - - -
17/08:30pm - - - - - E 44 54 24 29 - - -
17/08:00pm - - - - - E 33 43 18 23 - - -
17/07:30pm - - - - - E 30 39 16 21 - - -
17/07:00pm - - - - - E 32 41 17 22 - - -
17/06:30pm - - - - - E 28 37 15 20 - - -
17/06:00pm - - - - - E 30 39 16 21 - - -
17/05:30pm - - - - - E 26 33 14 18 - - -
17/05:00pm - - - - - ESE 30 41 16 22 - - -
17/04:30pm - - - - - E 26 35 14 19 - - -
17/04:00pm - - - - - ESE 30 39 16 21 - - -
17/03:30pm - - - - - ESE 28 33 15 18 - - -
17/03:00pm - - - - - ESE 26 30 14 16 - - -
17/02:30pm - - - - - ESE 24 30 13 16 - - -
17/02:00pm - - - - - ESE 32 37 17 20 - - -
17/01:30pm - - - - - ESE 28 33 15 18 - - -
17/01:00pm - - - - - ESE 24 28 13 15 - - -
17/12:30pm - - - - - ESE 28 39 15 21 - - -
17/12:00pm - - - - - SE 22 26 12 14 - - -
17/11:30am - - - - - ESE 26 32 14 17 - - -
17/11:00am - - - - - SE 30 35 16 19 - - -
17/10:30am - - - - - ESE 28 37 15 20 - - -
17/10:00am - - - - - ESE 28 33 15 18 - - -
17/09:30am - - - - - SE 26 30 14 16 - - -
17/09:00am - - - - - ESE 30 35 16 19 - - -
17/08:30am - - - - - ESE 24 30 13 16 - - -
17/08:00am - - - - - ESE 24 30 13 16 - - -
17/07:30am - - - - - ESE 26 30 14 16 - - -
17/07:00am - - - - - ESE 22 26 12 14 - - -
17/06:30am - - - - - ESE 19 20 10 11 - - -
17/06:00am - - - - - ESE 30 37 16 20 - - -
17/05:30am - - - - - ESE 28 33 15 18 - - -
17/05:00am - - - - - ESE 19 22 10 12 - - -
17/04:30am - - - - - ESE 19 22 10 12 - - -
17/04:00am - - - - - ESE 24 32 13 17 - - -
17/03:30am - - - - - SE 20 24 11 13 - - -
17/03:00am - - - - - SSE 20 24 11 13 - - -
17/02:30am - - - - - S 19 24 10 13 - - -
17/02:00am - - - - - SSE 15 19 8 10 - - -
17/01:30am - - - - - SE 11 15 6 8 - - -
17/01:00am - - - - - ESE 13 17 7 9 - - -
17/12:30am - - - - - S 20 26 11 14 - - -
17/12:00am - - - - - S 19 20 10 11 - - -
 
Date/Time
CST
Temp
°C
App
Temp
°C
Dew
Point
°C
Rel
Hum
%
Delta-T
°C
Wind Press
QNH
hPa
Press
MSL
hPa
Rain since
9am
mm
Dir  Spd
km/h
Gust
km/h
Spd
kts
Gust
kts
16/11:30pm - - - - - SSE 9 11 5 6 - - -
16/11:00pm - - - - - SSE 17 20 9 11 - - -
16/10:30pm - - - - - S 20 24 11 13 - - -
16/10:00pm - - - - - SSW 24 30 13 16 - - -
16/09:30pm - - - - - SSW 24 28 13 15 - - -
16/09:00pm - - - - - SSW 28 37 15 20 - - -
16/08:30pm - - - - - SSW 20 26 11 14 - - -
16/08:00pm - - - - - SSW 17 24 9 13 - - -
16/07:30pm - - - - - SSE 9 11 5 6 - - -
16/07:00pm - - - - - SSE 13 15 7 8 - - -
16/06:30pm - - - - - SSE 15 19 8 10 - - -
16/06:00pm - - - - - SSE 11 13 6 7 - - -
16/05:30pm - - - - - S 17 19 9 10 - - -
16/05:00pm - - - - - NNW 7 7 4 4 - - -
16/04:30pm - - - - - NW 6 9 3 5 - - -
16/04:00pm - - - - - WNW 9 11 5 6 - - -
16/03:30pm - - - - - NW 9 11 5 6 - - -
16/03:00pm - - - - - NW 17 19 9 10 - - -
16/02:30pm - - - - - NNW 13 17 7 9 - - -
16/02:00pm - - - - - NW 13 17 7 9 - - -
16/01:30pm - - - - - NW 15 17 8 9 - - -
16/01:00pm - - - - - WNW 15 17 8 9 - - -
16/12:30pm - - - - - WNW 17 19 9 10 - - -
16/12:00pm - - - - - WNW 15 17 8 9 - - -
16/11:30am - - - - - WNW 11 15 6 8 - - -
16/11:00am - - - - - NW 19 20 10 11 - - -
16/10:30am - - - - - NNW 19 22 10 12 - - -
16/10:00am - - - - - N 19 30 10 16 - - -
16/09:30am - - - - - NNE 17 20 9 11 - - -
16/09:00am - - - - - NNE 19 24 10 13 - - -
16/08:30am - - - - - N 22 28 12 15 - - -
16/08:00am - - - - - NNE 17 22 9 12 - - -
16/07:30am - - - - - NE 17 19 9 10 - - -
16/07:00am - - - - - NE 13 17 7 9 - - -
16/06:30am - - - - - NE 15 17 8 9 - - -

Latest Capital City Observations: Canberra | Sydney | Melbourne | Brisbane | Adelaide | Perth | Hobart | Darwin

Other formats

Comma delimited format used in spreadsheet applications
http://www.bom.gov.au/fwo/IDS60901/IDS60901.95675.axf

JavaScript Object Notation format (JSON) in row-major order
http://www.bom.gov.au/fwo/IDS60901/IDS60901.95675.json

Data quality

Most of these data are generated automatically and are frequently updated. Quality checks on data are not normally performed. It is possible for incorrect values to appear. Refer to information at About Latest Weather Observations and please check the disclaimer before using these data.